x

Nickerson Bank (44251) Wave Buoy

2:00pm - Sat 23rd Aug 2014 All times are UTC.

  • Sig Wave height 2.3ft
  • Peak Period 8s
  • Wind
    4mph
  • Sea Temp 69°f
  • Air Temp 59°f
  • Sea Pressure 1015.7mb

More Historic Weather Station data

Upgrade to MSW Pro to gain access to the past 30 days of data for over 8000 Wavebouys and Weather Stations around the globe.

Join Pro

Comparision Forecast

View Surf forecast
   
Sat 08/23 2:00pm 2.5ft 8s 4
mph
1015.7mb 69f 59f
1:00pm 2.5ft 9s 9 13 mph 1015.7mb 67f 58f
11:00am 2.5ft 8s 13 16 mph 1015.4mb 73f 57f
10:00am 2.5ft 9s 13 18 mph 1015.3mb 68f 57f
9:00am 2.5ft 9s 13 16 mph 1015mb 70f 57f
8:00am 2.5ft 8s 13 18 mph 1014.8mb 71f 57f
7:00am 2.5ft 9s 13 18 mph 1014.8mb 71f 57f
6:00am 2.5ft 8s 13 18 mph 1014.9mb 71f 57f
5:00am 2.5ft 9s 16 18 mph 1015mb 71f 57f
4:00am 2.5ft 9s 16 18 mph 1015.2mb 66f 57f
3:00am 3ft 8s 16 18 mph 1015.5mb 66f 58f
2:00am 3ft 8s 18 22 mph 1015.8mb 66f 58f
1:00am 3ft 7s 18 22 mph 1015.9mb 70f 60f
12:00am 3ft 10s 16 18 mph 1015.7mb 73f 60f
Fri 08/22 11:00pm 3.5ft 6s 16 18 mph 1015.4mb 67f 61f
10:00pm 3ft 6s 13 16 mph 1015.1mb 67f 62f
9:00pm 3ft 6s 11 13 mph 1014.9mb 66f 61f
8:00pm 2.5ft 11s 9 11 mph 1015.1mb 70f 60f
7:00pm 2.5ft 7s 4
mph
1014.9mb 70f 61f
6:00pm 2.5ft 10s 4 7 mph 1014.5mb 68f 61f
5:00pm 2.5ft 6s 9
mph
1014.6mb 69f 62f
4:00pm 2.5ft 8s 13 18 mph 1014.7mb 69f 63f
3:00pm 3ft 8s 13 16 mph 1014.5mb 66f 63f
2:00pm 3ft 6s 13 18 mph 1014.9mb 68f 63f
1:00pm 3.5ft 8s 13 18 mph 1014.8mb 66f 62f
12:00pm 3.5ft 6s 22 27 mph 1014.4mb 69f 62f
11:00am 3ft 6s 11 16 mph 1014.9mb 71f 62f
10:00am 3.5ft 9s 13 16 mph 1014.8mb 69f 61f
9:00am 3.5ft 6s 11 16 mph 1014.5mb 71f 61f
8:00am 3.5ft 6s 13 18 mph 1013.7mb 69f 61f
7:00am 3.5ft 6s 16 20 mph 1013.1mb 71f 62f
6:00am 3.5ft 6s 16 18 mph 1012.8mb 68f 62f
5:00am 4.5ft 6s 18 20 mph 1012.4mb 71f 62f
4:00am 4.5ft 7s 13 18 mph 1012.8mb 71f 62f
3:00am 4.5ft 6s 16 20 mph 1012.7mb 70f 62f
2:00am 4.5ft 6s 13 16 mph 1013mb 70f 62f
1:00am 4.5ft 6s 13 16 mph 1012.7mb 71f 62f
12:00am 4.5ft 7s 20 25 mph 1012mb 71f 63f
Thu 08/21 11:00pm 4.5ft 7s 18 22 mph 1011.8mb 73f 64f
10:00pm 4.5ft 7s 13 16 mph 1011.2mb 72f 64f
9:00pm 4.5ft 7s 16 18 mph 1010.9mb 73f 64f
8:00pm 4.5ft 8s 16 18 mph 1010.4mb 73f 64f
7:00pm 4.5ft 8s 18 22 mph 1010.2mb 72f 64f
6:00pm 4.5ft 8s 18 22 mph 1010.4mb 72f 63f
5:00pm 4.5ft 7s 18 20 mph 1010.5mb 71f 63f
4:00pm 5ft 7s 16 18 mph 1010.9mb 69f 63f
3:00pm 5.5ft 8s 16 18 mph 1011.2mb 64f 63f
2:00pm 6ft 7s 16 18 mph 1011.4mb 64f 63f
1:00pm 7.5ft 7s 13 18 mph 1011.5mb 64f 63f
12:00pm 7ft 7s 16 18 mph 1011.2mb 64f 63f
11:00am 7ft 7s 16 18 mph 1011.4mb 64f 63f
10:00am 7ft 8s 16 20 mph 1011.2mb 64f 63f
9:00am 8ft 7s 16 18 mph 1011.1mb 64f 62f
8:00am 7.5ft 8s 13 18 mph 1011.1mb 64f 62f
7:00am 7ft 8s 16 18 mph 1011.4mb 64f 62f
6:00am 7ft 8s 16 20 mph 1011.6mb 64f 63f
5:00am 7ft 8s 16 18 mph 1012mb 64f 63f
4:00am 7ft 8s 16 18 mph 1012.3mb 64f 63f
3:00am 6ft 8s 18 20 mph 1012.5mb 64f 63f
2:00am 7ft 8s 20 22 mph 1012.4mb 64f 63f
1:00am 7ft 8s 18 22 mph 1012.6mb 64f 63f
12:00am 7ft 7s 18 22 mph 1012.8mb 64f 64f
Wed 08/20 11:00pm 7ft 8s 20 25 mph 1012.7mb 64f 64f
10:00pm 7.5ft 8s 20 22 mph 1012.5mb 64f 64f
9:00pm 7ft 8s 20 22 mph 1012.4mb 64f 64f
8:00pm 7.5ft 8s 18 22 mph 1012.5mb 64f 64f
7:00pm 7.5ft 8s 18 22 mph 1012.5mb 65f 64f
6:00pm 8ft 8s 18 22 mph 1012.4mb 64f 65f
5:00pm 7ft 8s 18 20 mph 1012.7mb 64f 64f
4:00pm 7ft 8s 18 22 mph 1012.8mb 64f 64f
3:00pm 7ft 8s 18 20 mph 1012.9mb 64f 64f
2:00pm 6.5ft 8s 16 20 mph 1013mb 64f 64f
1:00pm 6.5ft 8s 16 18 mph 1013.1mb 64f 63f
12:00pm 6ft 8s 13 18 mph 1012.8mb 64f 63f
11:00am 7ft 8s 13 16 mph 1012.6mb 64f 63f
10:00am 7ft 9s 13 16 mph 1012.1mb 64f 63f
9:00am 7ft 9s 13 16 mph 1011.6mb 64f 63f
8:00am 7ft 9s 13 18 mph 1011.3mb 64f 62f
7:00am 7ft 8s 13 16 mph 1011.3mb 64f 62f
6:00am 7.5ft 8s 16 18 mph 1011mb 64f 63f
5:00am 7ft 8s 16 18 mph 1010.8mb 64f 63f
4:00am 7ft 8s 13 16 mph 1010.6mb 64f 63f
3:00am 7ft 7s 16 18 mph 1010.5mb 64f 63f
2:00am 7ft 6s 13 16 mph 1010.5mb 64f 63f
1:00am 7ft 6s 13 16 mph 1010.3mb 64f 63f
12:00am 6ft 7s 16 18 mph 1010.2mb 64f 64f
Tue 08/19 11:00pm 6ft 7s 16 18 mph 1009.5mb 64f 64f
10:00pm 6ft 6s 13 18 mph 1008.8mb 64f 63f
9:00pm 6ft 7s 18 22 mph 1008.1mb 64f 64f
8:00pm 6ft 7s 13 18 mph 1007.6mb 64f 64f
7:00pm 6ft 7s 13 18 mph 1007.3mb 64f 64f
6:00pm 6ft 7s 13 16 mph 1007mb 64f 64f
5:00pm 7ft 7s 11 13 mph 1007mb 64f 64f
4:00pm 7ft 8s 13 16 mph 1007.1mb 64f 63f